M I D A S
Marine Information and Data Acquisition System
Tripno 688 of the Zeeleeuw from 2004-04-26 06:30:06 to 2004-04-26 12:57:17
Back to CruiseResearch ActivitiesStationsMapUnderway DataData graphs

EquipmentUnitsComment
TimeDGPSUTC
LatitudeDGPSDM.mWGS84
LongitudeDGPSDM.mWGS84
HeadingGyrodeg 
SOGDGPSknotsSpeed over ground
COGDGPSdegCourse over ground
DepthEcho soundermeters200 kHz
Missing or incorrect values are displayed as -999
Navigation data collected by the RV Zeeleeuw from 2004-04-26 06:30:06 to 2004-04-26 12:57:17
Time Latitude Longitude Heading SOG COG Depth
2004-04-26 06:31:12 51°13.599 2°56.083 116.3 2.5 292 -999
2004-04-26 06:32:14 51°13.632 2°55.979 120.3 5.3 296 -999
2004-04-26 06:33:14 51°13.663 2°55.841 104.2 5.5 281 -999
2004-04-26 06:34:13 51°13.666 2°55.761 66.2 0.4 300 5.1
2004-04-26 06:35:13 51°13.724 2°55.741 333.4 5.3 327 12.7
2004-04-26 06:36:13 51°13.82 2°55.641 336.2 7.6 332 11.2
2004-04-26 06:37:14 51°13.945 2°55.553 342.1 8.3 336 11.2
2004-04-26 06:38:14 51°14.073 2°55.459 340.8 8.5 335 12.3
2004-04-26 06:39:13 51°14.219 2°55.328 331.5 11.8 323 12.1
2004-04-26 06:40:14 51°14.366 2°55.076 315.5 13.3 308 11.6
2004-04-26 06:41:14 51°14.526 2°54.812 324.7 13.9 318 11
2004-04-26 06:42:13 51°14.703 2°54.581 330.6 14 325 10.8
2004-04-26 06:43:19 51°14.915 2°54.348 331.8 14 326 10.1
2004-04-26 06:44:24 51°15.121 2°54.12 329 13.9 323 10
2004-04-26 06:45:25 51°15.312 2°53.9 330 13.9 324 10.8
2004-04-26 06:46:24 51°15.497 2°53.687 330.4 13.9 325 11.5
2004-04-26 06:47:25 51°15.695 2°53.478 331.9 14 327 12.2
2004-04-26 06:48:25 51°15.896 2°53.291 337.7 14 333 12.6
2004-04-26 06:49:24 51°16.103 2°53.133 339.2 14 334 13.1
2004-04-26 06:50:25 51°16.316 2°52.968 338.9 14.1 334 13.3
2004-04-26 06:51:25 51°16.528 2°52.806 339 14.1 334 12.8
2004-04-26 06:52:25 51°16.74 2°52.647 339.4 14.1 335 11.1
2004-04-26 06:53:25 51°16.952 2°52.486 338.9 14.2 334 10.8
2004-04-26 06:54:25 51°17.163 2°52.323 339.6 14.1 334 11
2004-04-26 06:55:25 51°17.375 2°52.156 339.8 14.2 334 11.5
2004-04-26 06:56:25 51°17.558 2°51.925 315.2 14.2 309 11.4
2004-04-26 06:57:22 51°17.698 2°51.647 312 14.1 308 10.9
2004-04-26 06:58:24 51°17.85 2°51.345 313.2 14.2 309 11.3
2004-04-26 06:59:21 51°17.992 2°51.066 313.4 14.2 309 12.7
2004-04-26 07:00:22 51°18.128 2°50.752 304.9 14.1 301 13.8
2004-04-26 07:01:29 51°18.263 2°50.392 306.1 14.1 301 14.8
2004-04-26 07:02:27 51°18.378 2°50.083 305.8 14.1 301 15
2004-04-26 07:03:33 51°18.513 2°49.73 305.9 14.1 300 13.6
2004-04-26 07:04:33 51°18.635 2°49.409 306.1 14.2 301 11.5
2004-04-26 07:05:33 51°18.759 2°49.087 306.2 14.2 301 11.6
2004-04-26 07:06:33 51°18.883 2°48.764 306.2 14.3 302 13.4
2004-04-26 07:07:38 51°19.019 2°48.417 306.6 14.2 302 16.2
2004-04-26 07:08:38 51°19.145 2°48.096 305.8 14.3 302 18.6
2004-04-26 07:09:37 51°19.271 2°47.779 306.4 14.3 302 20.9
2004-04-26 07:10:38 51°19.403 2°47.454 306.2 14.3 303 22.2
2004-04-26 07:11:37 51°19.527 2°47.14 305.5 14 302 22.3
2004-04-26 07:12:38 51°19.651 2°46.82 306.3 13.9 302 21.3
2004-04-26 07:13:38 51°19.771 2°46.505 306.5 14 301 19.2
2004-04-26 07:14:38 51°19.893 2°46.187 306.8 14 302 14
2004-04-26 07:15:37 51°19.96 2°45.841 285.6 14 282 15.4
2004-04-26 07:16:37 51°20.01 2°45.479 285.6 13.9 284 19.9
2004-04-26 07:17:38 51°20.063 2°45.116 286 13.8 283 23.7
2004-04-26 07:18:42 51°20.122 2°44.736 287.4 13.9 284 24.3
2004-04-26 07:19:42 51°20.177 2°44.378 287.1 13.8 284 25.5
2004-04-26 07:20:43 51°20.251 2°44.022 298.3 14 295 27.3
2004-04-26 07:21:53 51°20.372 2°43.632 299.5 14.1 296 27.6
2004-04-26 07:22:53 51°20.475 2°43.292 299.7 14.1 295 26.4
2004-04-26 07:23:53 51°20.553 2°42.942 283.7 14 278 23.1
2004-04-26 07:24:53 51°20.577 2°42.57 279 14 276 21.8
2004-04-26 07:25:53 51°20.603 2°42.197 280.9 14.2 277 19.6
2004-04-26 07:26:53 51°20.63 2°41.821 280.6 14.2 277 20.1
2004-04-26 07:27:57 51°20.662 2°41.421 281.3 14.2 277 25.2
2004-04-26 07:28:58 51°20.695 2°41.041 280.6 14.2 277 27.4
2004-04-26 07:29:58 51°20.729 2°40.667 281.2 14.1 279 25.8
2004-04-26 07:30:57 51°20.764 2°40.302 280.8 14.2 278 26.5
2004-04-26 07:31:58 51°20.789 2°39.921 277.1 14.1 275 26.6
2004-04-26 07:32:58 51°20.802 2°39.547 277 14.1 273 24.3
2004-04-26 07:33:57 51°20.815 2°39.178 277.2 14.2 273 25.1
2004-04-26 07:34:57 51°20.827 2°38.8 276.5 14.3 272 25.1
2004-04-26 07:35:58 51°20.841 2°38.413 276.9 14.3 272 24.6
2004-04-26 07:36:57 51°20.854 2°38.038 276.9 14.4 273 24.3
2004-04-26 07:37:56 51°20.868 2°37.664 277.1 14.2 273 24.6
2004-04-26 07:38:57 51°20.884 2°37.28 277.4 14.3 274 23
2004-04-26 07:39:57 51°20.898 2°36.902 277.6 14.2 274 23.1
2004-04-26 07:41:02 51°20.915 2°36.494 277.4 14.2 274 24.2
2004-04-26 07:42:01 51°20.93 2°36.124 277.2 14.1 274 25
2004-04-26 07:43:01 51°20.946 2°35.753 277.6 14 274 28.8
2004-04-26 07:44:01 51°20.961 2°35.381 277.3 14.1 273 24.5
2004-04-26 07:45:02 51°20.978 2°34.998 277.4 14.3 275 31.9
2004-04-26 07:46:09 51°21 2°34.576 277.4 14.3 275 31.1
2004-04-26 07:47:07 51°21.02 2°34.213 277.2 14.2 275 31.2
2004-04-26 07:48:07 51°21.042 2°33.838 276.9 14.1 275 31.9
2004-04-26 07:49:08 51°21.059 2°33.459 277.2 14.1 274 31.8
2004-04-26 07:50:07 51°21.108 2°33.109 304.9 13.8 303 30.2
2004-04-26 07:51:07 51°21.307 2°32.936 343.3 14.1 338 26.8
2004-04-26 07:52:14 51°21.566 2°32.864 357.8 14.2 352 22.2
2004-04-26 07:53:14 51°21.799 2°32.807 357.8 14.2 351 24.9
2004-04-26 07:54:14 51°22.032 2°32.749 357.2 14.2 351 30.2
2004-04-26 07:55:14 51°22.259 2°32.675 350 13.8 339 30.6
2004-04-26 07:56:14 51°22.449 2°32.463 324.7 14 314 31.8
2004-04-26 07:57:15 51°22.587 2°32.147 309.3 14.4 304 31
2004-04-26 07:58:14 51°22.702 2°31.823 292.4 14.3 286 31.1
2004-04-26 07:59:20 51°22.757 2°31.415 285.5 14.2 282 30.9
2004-04-26 08:00:20 51°22.8 2°31.045 280.2 14.1 275 29.8
2004-04-26 08:01:19 51°22.793 2°30.675 270.4 14.2 268 28.1
2004-04-26 08:02:20 51°22.786 2°30.291 271.1 14.2 268 32.3
2004-04-26 08:03:20 51°22.779 2°29.916 271.8 14.1 268 33
2004-04-26 08:04:19 51°22.775 2°29.546 271.7 14.2 269 33.1
2004-04-26 08:05:19 51°22.771 2°29.169 272.3 14.2 270 33.5
2004-04-26 08:06:19 51°22.763 2°28.794 268.2 14.1 266 33.8
2004-04-26 08:07:25 51°22.74 2°28.383 268.3 14.1 265 33.8
2004-04-26 08:08:24 51°22.719 2°28.014 268 14.2 265 34.9
2004-04-26 08:09:24 51°22.699 2°27.639 268.3 14.2 265 34.6
2004-04-26 08:10:24 51°22.679 2°27.263 267.8 14.2 265 33.6
2004-04-26 08:11:24 51°22.659 2°26.888 268.2 14.2 266 33.6
2004-04-26 08:12:24 51°22.637 2°26.513 268.5 14.2 263 32.3
2004-04-26 08:13:25 51°22.688 2°26.147 300.6 14.2 296 29.1
2004-04-26 08:14:24 51°22.813 2°25.835 314 14.3 308 17.8
2004-04-26 08:15:24 51°22.979 2°25.569 335.6 14.1 332 26.5
2004-04-26 08:16:24 51°23.205 2°25.476 359.2 14.1 353 31.9
2004-04-26 08:17:24 51°23.439 2°25.473 7.1 14.1   32.8
2004-04-26 08:18:24 51°23.675 2°25.479 7.8 14.1 1 33.4
2004-04-26 08:19:23 51°23.906 2°25.487 8.1 14.1 2 33.3
2004-04-26 08:20:24 51°24.145 2°25.495 7.9 14.2 2 33.8
2004-04-26 08:21:24 51°24.381 2°25.503 8.4 14.2 1 33.7
2004-04-26 08:22:24 51°24.614 2°25.54 17.7 14.1 11 35.7
2004-04-26 08:23:24 51°24.845 2°25.612 17.9 14.1 10 35.1
2004-04-26 08:24:24 51°25.075 2°25.681 17.4 14 11 34.4
2004-04-26 08:25:24 51°25.304 2°25.749 17.5 14 11 33.7
2004-04-26 08:26:23 51°25.531 2°25.815 17.7 14.1 11 32
2004-04-26 08:27:22 51°25.757 2°25.879 17.1 14 10 31.5
2004-04-26 08:28:23 51°25.991 2°25.948 17.3 14 10 29.4
2004-04-26 08:29:22 51°26.217 2°26.013 17.5 13.9 11 26.3
2004-04-26 08:30:23 51°26.45 2°26.08 17.4 14 10 25.8
2004-04-26 08:31:25 51°26.686 2°26.147 17.5 14 10 23
2004-04-26 08:32:25 51°26.915 2°26.213 17 13.9 11 24.1
2004-04-26 08:33:24 51°27.14 2°26.279 17.2 14 10 30.3
2004-04-26 08:34:24 51°27.368 2°26.345 17.3 13.9 11 32.8
2004-04-26 08:35:25 51°27.6 2°26.414 17 14 11 33.2
2004-04-26 08:36:24 51°27.824 2°26.483 17.4 13.9 11 34
2004-04-26 08:37:24 51°28.052 2°26.553 17.5 13.9 11 34.5
2004-04-26 08:38:27 51°28.291 2°26.626 17.3 13.9 10 34.3
2004-04-26 08:39:30 51°28.531 2°26.697 17.4 14 11 34.6
2004-04-26 08:40:31 51°28.764 2°26.767 17.7 14 11 34.6
2004-04-26 08:41:37 51°28.915 2°26.832 37.6 4.3 30 34.8
2004-04-26 08:42:37 51°28.935 2°26.844 64.4 0.5 348 34.7
2004-04-26 08:43:36 51°28.942 2°26.841 67.1 0.4 351 34.9
2004-04-26 08:44:36 51°28.949 2°26.84 70.2 0.5 354 34.5
2004-04-26 08:45:36 51°28.956 2°26.838 74 0.4 350 34.3
2004-04-26 08:46:36 51°28.962 2°26.837 77.6 0.4 356 34.2
2004-04-26 08:47:36 51°28.976 2°26.864 67.7 4.6 54 33.3
2004-04-26 08:48:37 51°29.142 2°26.914 356 13.2 344 30.9
2004-04-26 08:49:36 51°29.357 2°26.797 349 14.1 342 32.1
2004-04-26 08:50:37 51°29.583 2°26.676 347.9 14.1 341 30.5
2004-04-26 08:51:36 51°29.803 2°26.562 348.9 14.1 342 27.6
2004-04-26 08:52:45 51°30.057 2°26.427 348.7 14 341 31.1
2004-04-26 08:53:42 51°30.268 2°26.314 349.2 14 342 26.4
2004-04-26 08:54:42 51°30.489 2°26.2 349.3 14 342 34.3
2004-04-26 08:55:43 51°30.715 2°26.081 349.1 14 342 33.9
2004-04-26 08:56:45 51°30.945 2°25.973 354.4 13.9 347 38.6
2004-04-26 08:57:44 51°31.165 2°25.892 354.1 13.7 346 39.7
2004-04-26 08:58:44 51°31.39 2°25.865 8.6 13.6 1 40.1
2004-04-26 08:59:45 51°31.621 2°25.863 7.1 13.7 359 38.9
2004-04-26 09:00:45 51°31.849 2°25.86 7.2 13.8 359 40.2
2004-04-26 09:01:44 51°32.074 2°25.874 15.1 13.6 9 37
2004-04-26 09:02:45 51°32.302 2°25.949 20.1 13.8 15 36.8
2004-04-26 09:03:46 51°32.522 2°26.061 24.5 13.6 18 38.4
2004-04-26 09:04:46 51°32.737 2°26.171 24.6 13.6 18 37.8
2004-04-26 09:05:46 51°32.952 2°26.285 27.5 13.7 23 37.4
2004-04-26 09:06:46 51°33.158 2°26.436 31.1 13.6 25 37.8
2004-04-26 09:07:46 51°33.364 2°26.585 30 13.6 24 35.5
2004-04-26 09:08:45 51°33.565 2°26.736 34.2 13.6 28 35.3
2004-04-26 09:09:45 51°33.762 2°26.911 34.8 13.5 29 37
2004-04-26 09:10:45 51°33.954 2°27.1 37.7 13.4 32 36.6
2004-04-26 09:11:45 51°34.144 2°27.292 39.3 13.4 34 35.1
2004-04-26 09:12:44 51°34.326 2°27.492 40.3 13.5 34 36.5
2004-04-26 09:13:45 51°34.514 2°27.698 40.3 13.5 34 36
2004-04-26 09:14:45 51°34.698 2°27.903 40.8 13.4 35 35
2004-04-26 09:15:45 51°34.884 2°28.107 40.1 13.5 34 35.6
2004-04-26 09:16:45 51°35.07 2°28.309 40.3 13.5 34 34.7
2004-04-26 09:17:44 51°35.253 2°28.507 39.8 13.4 34 32.5
2004-04-26 09:18:45 51°35.44 2°28.713 40.1 13.4 35 36.5
2004-04-26 09:19:45 51°35.625 2°28.914 39.8 13.5 34 35.5
2004-04-26 09:20:45 51°35.808 2°29.117 41.1 13.4 34 34
2004-04-26 09:21:45 51°35.993 2°29.316 40.1 13.3 34 33.5
2004-04-26 09:22:44 51°36.174 2°29.514 40.6 13.4 34 34
2004-04-26 09:23:45 51°36.361 2°29.717 40.2 13.4 34 33.3
2004-04-26 09:24:44 51°36.542 2°29.914 39.9 13.3 34 35.4
2004-04-26 09:25:44 51°36.726 2°30.117 40.6 13.3 35 35.7
2004-04-26 09:26:45 51°36.914 2°30.32 39.8 13.4 33 33.9
2004-04-26 09:27:45 51°37.098 2°30.522 40.6 13.4 34 35.6
2004-04-26 09:28:45 51°37.283 2°30.722 40 13.4 35 36.4
2004-04-26 09:29:45 51°37.466 2°30.924 41.8 13.5 35 36.7
2004-04-26 09:30:45 51°37.651 2°31.123 40.2 13.4 34 36.2
2004-04-26 09:31:44 51°37.833 2°31.321 40.6 13.4 34 37.3
2004-04-26 09:32:43 51°38.017 2°31.517 39.5 13.5 34 38.3
2004-04-26 09:33:44 51°38.207 2°31.723 40.6 13.5 35 39.2
2004-04-26 09:34:45 51°38.396 2°31.927 39.4 13.6 33 40.8
2004-04-26 09:35:45 51°38.58 2°32.13 40.3 13.5 34 38.5
2004-04-26 09:36:45 51°38.765 2°32.332 41 13.5 35 40.7
2004-04-26 09:37:45 51°38.95 2°32.535 39.6 13.4 34 40.6
2004-04-26 09:38:45 51°39.135 2°32.738 40.4 13.4 34 38.9
2004-04-26 09:39:45 51°39.32 2°32.942 39.1 13.5 34 40.3
2004-04-26 09:40:45 51°39.504 2°33.145 40.6 13.4 34 40.7
2004-04-26 09:41:45 51°39.687 2°33.349 40.3 13.4 35 38.7
2004-04-26 09:42:46 51°39.874 2°33.558 40.1 13.5 35 42.5
2004-04-26 09:43:45 51°40.055 2°33.761 40.1 13.4 35 40.7
2004-04-26 09:44:45 51°40.239 2°33.967 40.3 13.5 35 41.2
2004-04-26 09:45:44 51°40.42 2°34.169 40.6 13.4 34 37.6
2004-04-26 09:46:45 51°40.608 2°34.376 40.1 13.5 34 36.4
2004-04-26 09:47:45 51°40.793 2°34.581 39.9 13.4 35 36.6
2004-04-26 09:48:45 51°40.976 2°34.785 40.2 13.3 35 35.8
2004-04-26 09:49:46 51°41.161 2°34.989 40.7 13.4 35 37.5
2004-04-26 09:50:45 51°41.34 2°35.187 40.6 13.2 35 33.3
2004-04-26 09:51:46 51°41.525 2°35.39 39.9 13.2 34 28.4
2004-04-26 09:52:46 51°41.685 2°35.629 53.7 13.1 50 28
2004-04-26 09:53:45 51°41.821 2°35.894 55.3 13 50 24.2
2004-04-26 09:54:46 51°41.905 2°36.213 84.8 13 87 27
2004-04-26 09:55:44 51°41.857 2°36.546 108.1 13.4 108 25.3
2004-04-26 09:56:45 51°41.793 2°36.894 107.7 13.4 107 25.7
2004-04-26 09:57:44 51°41.728 2°37.232 107.9 13.5 106 33.6
2004-04-26 09:58:45 51°41.64 2°37.572 117 13.6 115 36.9
2004-04-26 09:59:45 51°41.546 2°37.901 115.2 13.5 114 38.2
2004-04-26 10:00:45 51°41.454 2°38.232 115.7 13.7 113 38.7
2004-04-26 10:01:44 51°41.365 2°38.559 114.2 13.6 114 42
2004-04-26 10:02:45 51°41.274 2°38.899 114.8 13.6 114 42.6
2004-04-26 10:03:45 51°41.184 2°39.233 114.7 13.5 114 39.2
2004-04-26 10:04:45 51°41.094 2°39.563 116.2 13.6 117 36.1
2004-04-26 10:05:44 51°40.997 2°39.883 116.7 13.5 116 37.4
2004-04-26 10:06:45 51°40.89 2°40.209 118.5 13.5 118 39.8
2004-04-26 10:07:45 51°40.785 2°40.529 118.1 13.5 118 36.6
2004-04-26 10:08:45 51°40.68 2°40.848 118.3 13.4 118 34.1
2004-04-26 10:09:45 51°40.576 2°41.167 118.3 13.4 117 32.4
2004-04-26 10:10:44 51°40.473 2°41.479 118.4 13.5 118 34.9
2004-04-26 10:11:45 51°40.366 2°41.801 119 13.4 118 28.1
2004-04-26 10:12:45 51°40.262 2°42.119 118.2 13.5 118 30.6
2004-04-26 10:13:46 51°40.157 2°42.442 118 13.4 117 31.1
2004-04-26 10:14:46 51°40.052 2°42.761 118.9 13.5 118 32.1
2004-04-26 10:15:46 51°39.949 2°43.08 117.5 13.4 118 34.1
2004-04-26 10:16:46 51°39.846 2°43.4 118.3 13.5 118 35.4
2004-04-26 10:17:43 51°39.746 2°43.702 118.5 13.5 117 35.3
2004-04-26 10:18:46 51°39.636 2°44.037 118.4 13.4 118 35.9
2004-04-26 10:19:45 51°39.533 2°44.351 118.5 13.5 119 35.2
2004-04-26 10:20:46 51°39.425 2°44.675 117.7 13.5 118 33.7
2004-04-26 10:21:46 51°39.32 2°44.995 118.2 13.6 118 31.7
2004-04-26 10:22:43 51°39.219 2°45.298 118.4 13.6 118 36.1
2004-04-26 10:23:43 51°39.03 2°45.409 200.8 13.9 204 34.9
2004-04-26 10:24:46 51°38.798 2°45.25 203.7 14.6 203 32.8
2004-04-26 10:25:46 51°38.574 2°45.099 204.3 14.6 203 36
2004-04-26 10:26:46 51°38.349 2°44.947 204.7 14.7 203 34.2
2004-04-26 10:27:45 51°38.181 2°44.695 247.5 14.3 247 35.1
2004-04-26 10:28:45 51°38.135 2°44.318 271.3 14.5 264 34.7
2004-04-26 10:29:46 51°38.111 2°43.925 271.1 14.6 265 31.4
2004-04-26 10:30:46 51°38.114 2°43.538 279.1 14.5 272 31.8
2004-04-26 10:31:46 51°38.12 2°43.151 278.3 14.5 271 35.8
2004-04-26 10:32:46 51°38.124 2°42.763 278.3 14.5 271 35.6
2004-04-26 10:33:46 51°38.128 2°42.375 279.3 14.5 272 33.2
2004-04-26 10:34:46 51°38.13 2°41.989 277.8 14.4 270 29.6
2004-04-26 10:35:46 51°38.132 2°41.601 278.8 14.6 271 16.1
2004-04-26 10:36:46 51°38.135 2°41.205 277.9 14.8 270 21.8
2004-04-26 10:37:43 51°38.112 2°40.836 259.3 14.9 251 22.2
2004-04-26 10:38:46 51°37.99 2°40.468 243.1 15 238 27.7
2004-04-26 10:39:46 51°37.822 2°40.175 226.5 14.9 221 31.6
2004-04-26 10:40:46 51°37.625 2°39.935 219.1 14.8 217 33.9
2004-04-26 10:41:46 51°37.428 2°39.696 220.2 14.9 217 35.9
2004-04-26 10:42:46 51°37.214 2°39.501 202.5 14.7 200 36.5
2004-04-26 10:43:42 51°36.995 2°39.394 198.1 14.8 198 36.4
2004-04-26 10:44:46 51°36.744 2°39.266 198.9 14.8 198 36.8
2004-04-26 10:45:46 51°36.508 2°39.143 199.6 15 198 35.8
2004-04-26 10:46:43 51°36.285 2°39.023 199.8 14.9 198 36
2004-04-26 10:47:46 51°36.038 2°38.888 199.7 14.9 199 36.7
2004-04-26 10:48:46 51°35.803 2°38.757 200.5 14.9 200 37.1
2004-04-26 10:49:46 51°35.564 2°38.695 179.1 14.6 179 36.4
2004-04-26 10:50:45 51°35.328 2°38.727 165.5 14.2 164 36.8
2004-04-26 10:51:46 51°35.104 2°38.864 158.2 14.2 159 35.5
2004-04-26 10:52:46 51°34.923 2°39.08 135.5 13.6 138 32.4
2004-04-26 10:53:46 51°34.755 2°39.323 137.7 13.6 139 28.2
2004-04-26 10:54:46 51°34.581 2°39.557 138.2 13.6 140 27
2004-04-26 10:55:46 51°34.406 2°39.787 139.3 13.6 141 20.2
2004-04-26 10:56:45 51°34.233 2°40.008 140 13.4 143 14.1
2004-04-26 10:57:45 51°34.027 2°40.163 165.5 14.4 169 30.4
2004-04-26 10:58:44 51°33.792 2°40.193 184.9 14.7 187 35.3
2004-04-26 10:59:45 51°33.543 2°40.13 188.3 14.9 188 37.7
2004-04-26 11:00:45 51°33.298 2°40.077 187.2 14.8 187 39.5
2004-04-26 11:01:45 51°33.054 2°40.011 192.3 15 192 38.1
2004-04-26 11:02:45 51°32.81 2°39.932 190.9 15 191 37.9
2004-04-26 11:03:45 51°32.567 2°39.845 198.1 14.9 198 37.2
2004-04-26 11:04:45 51°32.331 2°39.719 199 15 198 37.8
2004-04-26 11:05:46 51°32.09 2°39.594 199 15 197 38
2004-04-26 11:06:45 51°31.856 2°39.472 198.8 15 198 38.1
2004-04-26 11:07:45 51°31.618 2°39.347 198.7 15.1 198 38
2004-04-26 11:08:45 51°31.38 2°39.225 198.4 15 197 37.3
2004-04-26 11:09:45 51°31.14 2°39.108 198.5 15 198 36
2004-04-26 11:10:46 51°30.896 2°38.987 198.1 15.2 198 37
2004-04-26 11:11:44 51°30.665 2°38.868 198.8 15.1 198 37.1
2004-04-26 11:12:46 51°30.419 2°38.743 198.6 15 197 37
2004-04-26 11:13:46 51°30.185 2°38.603 206 15.1 207 37.8
2004-04-26 11:14:46 51°30.001 2°38.339 238.9 15.1 237 36.3
2004-04-26 11:15:46 51°29.911 2°37.968 258.5 15 252 35.9
2004-04-26 11:16:45 51°29.826 2°37.596 255.4 15.1 249 29
2004-04-26 11:17:46 51°29.736 2°37.213 254.5 15.2 249 22.8
2004-04-26 11:18:46 51°29.646 2°36.835 254.4 15.2 249 25.2
2004-04-26 11:19:46 51°29.556 2°36.458 253.8 15.1 249 28.8
2004-04-26 11:20:46 51°29.464 2°36.081 253.5 15.1 249 31.7
2004-04-26 11:21:46 51°29.334 2°35.748 226.5 14.8 222 34.5
2004-04-26 11:22:46 51°29.114 2°35.606 185.3 14.2 184 35
2004-04-26 11:23:46 51°28.878 2°35.645 167.6 14.3 169 33.1
2004-04-26 11:24:46 51°28.644 2°35.718 164.9 14.3 167 32.5
2004-04-26 11:25:46 51°28.413 2°35.803 164.5 14.3 168 28.6
2004-04-26 11:26:46 51°28.182 2°35.887 164.2 14.3 167 28.1
2004-04-26 11:27:45 51°27.957 2°35.99 160.6 14.4 163 29.2
2004-04-26 11:28:50 51°27.708 2°36.108 161.1 14.5 164 33.7
2004-04-26 11:30:00 51°27.438 2°36.233 161.4 14.5 164 32.2
2004-04-26 11:31:01 51°27.201 2°36.342 161.3 14.5 164 32.5
2004-04-26 11:31:59 51°26.977 2°36.446 160.7 14.5 165 33.2
2004-04-26 11:33:01 51°26.737 2°36.558 161.7 14.5 164 32.6
2004-04-26 11:34:01 51°26.503 2°36.666 161.8 14.6 164 32.6
2004-04-26 11:35:01 51°26.271 2°36.777 161.7 14.6 164 33
2004-04-26 11:35:59 51°26.045 2°36.883 161.2 14.7 164 33.6
2004-04-26 11:37:01 51°25.804 2°36.997 161.4 14.6 164 33.7
2004-04-26 11:38:01 51°25.57 2°37.105 161.6 14.6 164 35.5
2004-04-26 11:39:01 51°25.342 2°37.232 155.5 14.5 158 33.4
2004-04-26 11:39:59 51°25.128 2°37.374 155.3 14.3 158 31.3
2004-04-26 11:41:00 51°24.907 2°37.527 152.4 14.2 154 30.8
2004-04-26 11:42:01 51°24.693 2°37.697 151 14.1 154 30.2
2004-04-26 11:43:01 51°24.483 2°37.862 150.9 14.1 154 29.5
2004-04-26 11:43:59 51°24.273 2°38.003 162 14.3 168 23.1
2004-04-26 11:45:01 51°24.022 2°38.01 181.4 14.8 182 23.6
2004-04-26 11:46:01 51°23.778 2°37.993 181.5 14.7 182 22.2
2004-04-26 11:47:01 51°23.533 2°37.982 179.9 14.7 182 26
2004-04-26 11:48:01 51°23.287 2°37.972 179.9 14.8 181 27.1
2004-04-26 11:49:01 51°23.043 2°37.963 179 14.8 181 29.2
2004-04-26 11:50:01 51°22.798 2°37.953 179.2 14.7 181 29.7
2004-04-26 11:51:01 51°22.555 2°37.941 179.2 14.5 182 29.9
2004-04-26 11:52:01 51°22.317 2°37.95 175.1 14.4 177 29.4
2004-04-26 11:53:01 51°22.079 2°37.971 172.3 14.4 174 29.6
2004-04-26 11:54:01 51°21.851 2°38.057 159.6 14 162 28.4
2004-04-26 11:54:59 51°21.652 2°38.216 144 13.7 146 26.6
2004-04-26 11:56:00 51°21.481 2°38.46 129.1 13.5 130 26.2
2004-04-26 11:57:01 51°21.345 2°38.751 125.3 13.5 128 26
2004-04-26 11:58:01 51°21.208 2°39.035 123.3 13.4 126 24.4
2004-04-26 11:59:01 51°21.091 2°39.334 117.3 13.1 119 25
2004-04-26 12:00:01 51°20.998 2°39.65 111.8 13.2 114 25.3
2004-04-26 12:01:01 51°20.928 2°39.979 105.5 13.1 106 24.3
2004-04-26 12:02:01 51°20.875 2°40.315 104.6 13 105 25.4
2004-04-26 12:02:59 51°20.823 2°40.637 104.1 12.8 105 24.7
2004-04-26 12:03:59 51°20.77 2°40.965 105.2 12.8 106 26.2
2004-04-26 12:04:59 51°20.715 2°41.292 104.1 12.7 104 26.6
2004-04-26 12:06:01 51°20.667 2°41.636 103 12.9 102 23
2004-04-26 12:07:01 51°20.619 2°41.968 103.7 12.8 104 20.3
2004-04-26 12:08:01 51°20.569 2°42.296 103 12.7 103 17.6
2004-04-26 12:09:01 51°20.517 2°42.623 103.1 12.7 104 21.2
2004-04-26 12:10:01 51°20.467 2°42.953 103.2 12.8 103 24.2
2004-04-26 12:11:01 51°20.418 2°43.286 103.6 12.9 103 25.9
2004-04-26 12:12:01 51°20.369 2°43.617 103 12.8 103 26.9
2004-04-26 12:13:01 51°20.32 2°43.948 102.9 12.8 103 26.7
2004-04-26 12:14:01 51°20.271 2°44.277 103.4 12.6 104 26.2
2004-04-26 12:15:01 51°20.223 2°44.605 103.5 12.6 103 25
2004-04-26 12:16:01 51°20.173 2°44.933 102.6 12.7 103 24
2004-04-26 12:17:01 51°20.122 2°45.261 103.8 12.8 104 22.7
2004-04-26 12:18:01 51°20.051 2°45.582 113.2 12.9 115 17.5
2004-04-26 12:19:01 51°19.965 2°45.893 112.5 12.9 113 13.8
2004-04-26 12:20:01 51°19.869 2°46.199 118.9 13 120 13.5
2004-04-26 12:21:01 51°19.759 2°46.502 118.3 13.2 120 18
2004-04-26 12:22:01 51°19.65 2°46.804 120.3 13.1 122 19.9
2004-04-26 12:23:01 51°19.536 2°47.102 119.6 13.1 121 21.6
2004-04-26 12:24:00 51°19.424 2°47.393 119.2 13.1 121 21.4
2004-04-26 12:25:01 51°19.309 2°47.694 119.1 13 121 20.7
2004-04-26 12:26:01 51°19.195 2°47.99 119.2 13.1 121 18.7
2004-04-26 12:27:01 51°19.083 2°48.288 118.3 13.1 120 16.9
2004-04-26 12:28:01 51°18.972 2°48.587 119.6 13.1 121 14.1
2004-04-26 12:29:01 51°18.86 2°48.886 119.9 13.1 121 12.1
2004-04-26 12:30:01 51°18.75 2°49.187 119.4 13.2 120 10.9
2004-04-26 12:31:01 51°18.637 2°49.488 119.4 13.2 121 10.8
2004-04-26 12:32:01 51°18.524 2°49.791 119.4 13.3 121 12.9
2004-04-26 12:33:01 51°18.403 2°50.087 121.4 13.3 124 14.1
2004-04-26 12:34:01 51°18.282 2°50.378 121.1 13.2 124 13.9
2004-04-26 12:35:01 51°18.159 2°50.669 121.9 13.2 125 13
2004-04-26 12:36:01 51°18.039 2°50.964 121.4 13.3 123 12.2
2004-04-26 12:37:01 51°17.917 2°51.26 121 13.4 122 10.9
2004-04-26 12:38:03 51°17.782 2°51.558 129.7 13.6 132 10
2004-04-26 12:39:03 51°17.613 2°51.802 141.8 13.9 143 10.2
2004-04-26 12:40:03 51°17.426 2°52.027 141.5 14 143 10.6
2004-04-26 12:41:03 51°17.219 2°52.204 156 14.3 157 10.5
2004-04-26 12:42:03 51°17.004 2°52.362 154 14.2 154 9.6
2004-04-26 12:43:03 51°16.792 2°52.525 152.4 14.3 152 9.9
2004-04-26 12:44:03 51°16.579 2°52.693 153.3 14.2 153 11.5
2004-04-26 12:45:03 51°16.366 2°52.862 153.6 14.2 154 12.3
2004-04-26 12:46:03 51°16.153 2°53.023 151.5 13.9 153 12.3
2004-04-26 12:47:03 51°15.948 2°53.189 150.8 13.8 153 11.9
2004-04-26 12:48:03 51°15.743 2°53.354 151.6 13.7 154 11.4
2004-04-26 12:49:03 51°15.538 2°53.523 150.4 13.8 152 10.8
2004-04-26 12:50:03 51°15.334 2°53.691 151.4 13.7 152 10
2004-04-26 12:51:03 51°15.131 2°53.863 151.2 13.9 152 9.4
2004-04-26 12:52:02 51°14.946 2°54.061 143.3 13.5 143 9
2004-04-26 12:53:02 51°14.77 2°54.291 137.3 13.8 137 10.1
2004-04-26 12:54:01 51°14.611 2°54.544 134.3 13.5 134 10.1
2004-04-26 12:55:02 51°14.47 2°54.808 128.7 12.5 127 10.7
2004-04-26 12:56:02 51°14.35 2°55.07 128 11.8 126 11.3
2004-04-26 12:57:02 51°14.243 2°55.294 138.5 8.9 135 11.3